Time;durP1;ratioP1;P1;durP2;ratioP2;P2;SDS_P1;SDS_P2;PMS_P1;PMS_P2;Temp;Humidity;BMP_temperature;BMP_pressure;BME280_temperature;BME280_humidity;BME280_pressure;Samples;Min_cycle;Max_cycle;Signal;HPM_P1;HPM_P2
2021/09/30 00:01:35;;;;;;;;;1.00;1.00;;;;;;;;5058261;28;10263;-75
2021/09/30 00:04:02;;;;;;;;;0.75;0.75;;;;;;;;5062349;28;10324;-74
2021/09/30 00:06:31;;;;;;;;;1.25;0.25;;;;;;;;5060074;28;10238;-74
2021/09/30 00:08:59;;;;;;;;;0.75;0.75;;;;;;;;5058769;28;10419;-75
2021/09/30 00:11:29;;;;;;;;;0.75;0.75;;;;;;;;5061194;28;11277;-75
2021/09/30 00:14:00;;;;;;;;;1.00;1.00;;;;;;;;5068770;28;10385;-74
2021/09/30 00:16:57;;;;;;;;;0.00;0.00;;;;;;;;5052412;28;10990;-75
2021/09/30 00:33:27;;;;;;;;;1.00;1.00;;;;;;;;5039033;28;11308;-74
2021/09/30 00:36:02;;;;;;;;;1.00;0.25;;;;;;;;5045616;28;11234;-79
2021/09/30 00:41:35;;;;;;;;;1.00;1.00;;;;;;;;5036990;28;10542;-75
2021/09/30 00:46:57;;;;;;;;;1.00;1.00;;;;;;;;5037301;28;10498;-77
2021/09/30 00:49:36;;;;;;;;;1.00;1.00;;;;;;;;5037766;28;10530;-76
2021/09/30 00:52:09;;;;;;;;;2.00;2.00;;;;;;;;5042892;28;10511;-75
2021/09/30 01:23:46;;;;;;;;;0.00;0.00;;;;;;;;5036461;28;10612;-74
2021/09/30 01:46:44;;;;;;;;;1.00;1.00;;;;;;;;5023487;28;10726;-76
2021/09/30 02:23:14;;;;;;;;;1.75;1.00;;;;;;;;5038794;28;10487;-76
2021/09/30 02:34:35;;;;;;;;;1.00;1.00;;;;;;;;5050011;28;10510;-78
2021/09/30 02:59:50;;;;;;;;;0.00;0.00;;;;;;;;4992814;28;10651;-75
2021/09/30 03:02:18;;;;;;;;;0.00;0.00;;;;;;;;5033922;28;10697;-76
2021/09/30 03:04:46;;;;;;;;;0.25;0.25;;;;;;;;5071855;28;10771;-75
2021/09/30 03:07:16;;;;;;;;;0.00;0.00;;;;;;;;5061065;28;10743;-76
2021/09/30 03:09:45;;;;;;;;;0.00;0.00;;;;;;;;5054890;28;10868;-76
2021/09/30 03:12:21;;;;;;;;;0.00;0.00;;;;;;;;5072950;28;11528;-77
2021/09/30 03:14:59;;;;;;;;;0.00;0.00;;;;;;;;5059017;28;10771;-76
2021/09/30 03:17:32;;;;;;;;;1.00;1.00;;;;;;;;5062251;28;10730;-80
2021/09/30 03:20:04;;;;;;;;;1.50;0.75;;;;;;;;5058437;28;10904;-79
2021/09/30 03:22:33;;;;;;;;;1.00;1.00;;;;;;;;5058361;28;10759;-81
2021/09/30 03:25:01;;;;;;;;;1.00;1.00;;;;;;;;5064726;28;11035;-75
2021/09/30 03:27:28;;;;;;;;;1.00;1.00;;;;;;;;5059396;28;10965;-80
2021/09/30 03:29:56;;;;;;;;;0.00;0.00;;;;;;;;5065658;28;10801;-76
2021/09/30 03:32:24;;;;;;;;;2.25;1.00;;;;;;;;5055010;28;10702;-78
2021/09/30 03:34:51;;;;;;;;;0.50;0.50;;;;;;;;5066469;28;10850;-79
2021/09/30 03:37:19;;;;;;;;;1.00;1.00;;;;;;;;5054728;28;10883;-80
2021/09/30 03:39:48;;;;;;;;;2.00;0.00;;;;;;;;5051227;28;10912;-80
2021/09/30 03:42:15;;;;;;;;;1.00;1.00;;;;;;;;5061017;28;10726;-78
2021/09/30 03:44:43;;;;;;;;;0.50;0.50;;;;;;;;5055628;28;10970;-76
2021/09/30 03:47:13;;;;;;;;;1.00;1.00;;;;;;;;5063461;28;10855;-79
2021/09/30 03:49:41;;;;;;;;;2.00;2.00;;;;;;;;5055892;28;10872;-76
2021/09/30 03:52:12;;;;;;;;;1.00;1.00;;;;;;;;5056527;28;11064;-77
2021/09/30 03:54:44;;;;;;;;;1.00;1.00;;;;;;;;5069171;28;10908;-77
2021/09/30 03:57:24;;;;;;;;;1.00;1.00;;;;;;;;5059922;28;10897;-78
2021/09/30 03:59:51;;;;;;;;;1.00;1.00;;;;;;;;5056360;28;11096;-78
2021/09/30 04:02:18;;;;;;;;;1.00;1.00;;;;;;;;5076280;28;10936;-77
2021/09/30 04:04:46;;;;;;;;;1.00;1.00;;;;;;;;5061648;28;10887;-79
2021/09/30 04:07:14;;;;;;;;;1.00;1.00;;;;;;;;5059599;28;11571;-75
2021/09/30 04:09:42;;;;;;;;;0.25;0.00;;;;;;;;5065815;28;11048;-74
2021/09/30 04:12:13;;;;;;;;;2.25;1.25;;;;;;;;5057242;28;10987;-73
2021/09/30 04:14:41;;;;;;;;;1.00;1.00;;;;;;;;5064404;28;11103;-73
2021/09/30 04:17:08;;;;;;;;;0.25;0.25;;;;;;;;5071133;28;11121;-74
2021/09/30 04:19:36;;;;;;;;;1.00;1.00;;;;;;;;5059889;28;10944;-72
2021/09/30 04:22:04;;;;;;;;;1.00;1.00;;;;;;;;5054370;28;11061;-73
2021/09/30 04:24:31;;;;;;;;;1.00;1.00;;;;;;;;5060799;28;10973;-73
2021/09/30 04:26:58;;;;;;;;;1.00;1.00;;;;;;;;5067084;28;11817;-73
2021/09/30 04:29:27;;;;;;;;;2.50;2.50;;;;;;;;5047296;28;11054;-73
2021/09/30 04:31:55;;;;;;;;;1.50;1.50;;;;;;;;5045411;28;11218;-72
2021/09/30 04:34:22;;;;;;;;;2.00;2.00;;;;;;;;5078060;28;11177;-73
2021/09/30 04:36:50;;;;;;;;;2.25;2.25;;;;;;;;5059025;28;12541;-72
2021/09/30 04:39:18;;;;;;;;;4.25;1.75;;;;;;;;5069708;28;11368;-75
2021/09/30 04:41:45;;;;;;;;;1.50;1.50;;;;;;;;5052520;28;11431;-75
2021/09/30 04:44:13;;;;;;;;;1.00;1.00;;;;;;;;5062413;28;11192;-73
2021/09/30 04:46:42;;;;;;;;;2.00;2.00;;;;;;;;5061054;28;11100;-72
2021/09/30 04:49:09;;;;;;;;;0.75;0.75;;;;;;;;5065200;28;11206;-73
2021/09/30 04:51:37;;;;;;;;;4.50;2.00;;;;;;;;5089238;27;11075;-72
2021/09/30 04:54:04;;;;;;;;;1.00;1.00;;;;;;;;5072699;28;11226;-73
2021/09/30 04:56:31;;;;;;;;;0.00;0.00;;;;;;;;5062950;28;11229;-74
2021/09/30 04:58:59;;;;;;;;;0.50;0.50;;;;;;;;5064131;28;11119;-74
2021/09/30 05:01:27;;;;;;;;;2.00;0.75;;;;;;;;5064237;27;11391;-73
2021/09/30 05:03:55;;;;;;;;;1.50;1.50;;;;;;;;5065687;28;11106;-73
2021/09/30 05:06:23;;;;;;;;;1.00;1.00;;;;;;;;5065433;28;11446;-73
2021/09/30 05:08:51;;;;;;;;;1.00;1.00;;;;;;;;5065305;28;11213;-72
2021/09/30 05:11:18;;;;;;;;;2.00;2.00;;;;;;;;5062417;28;11463;-75
2021/09/30 05:13:46;;;;;;;;;0.25;0.25;;;;;;;;5056480;28;12248;-74
2021/09/30 05:16:14;;;;;;;;;2.00;2.00;;;;;;;;5063104;28;11646;-80
2021/09/30 05:18:47;;;;;;;;;1.00;1.00;;;;;;;;5061489;28;11467;-74
2021/09/30 05:21:16;;;;;;;;;2.00;0.50;;;;;;;;5057211;28;11509;-75
2021/09/30 05:23:43;;;;;;;;;1.00;1.00;;;;;;;;5068867;28;12255;-77
2021/09/30 05:26:10;;;;;;;;;0.75;0.75;;;;;;;;5063436;28;11473;-82
2021/09/30 05:28:38;;;;;;;;;1.00;1.00;;;;;;;;5059943;28;11192;-76
2021/09/30 05:31:06;;;;;;;;;1.00;1.00;;;;;;;;5060811;28;11369;-74
2021/09/30 05:33:34;;;;;;;;;0.50;0.50;;;;;;;;5061248;28;11436;-75
2021/09/30 05:36:02;;;;;;;;;1.75;1.75;;;;;;;;5063833;28;11477;-73
2021/09/30 05:38:32;;;;;;;;;2.00;2.00;;;;;;;;5061528;28;11528;-73
2021/09/30 05:40:59;;;;;;;;;2.25;2.00;;;;;;;;5062251;28;11439;-74
2021/09/30 05:43:29;;;;;;;;;3.00;1.00;;;;;;;;5062332;28;11456;-74
2021/09/30 05:45:57;;;;;;;;;0.50;0.50;;;;;;;;5063716;28;11452;-75
2021/09/30 05:48:25;;;;;;;;;2.50;1.00;;;;;;;;5064535;28;11434;-74
2021/09/30 05:50:54;;;;;;;;;1.25;1.25;;;;;;;;5061176;28;11447;-76
2021/09/30 05:53:21;;;;;;;;;1.00;1.00;;;;;;;;5066343;28;11460;-75
2021/09/30 05:55:51;;;;;;;;;0.00;0.00;;;;;;;;5063632;28;11438;-75
2021/09/30 05:58:18;;;;;;;;;1.75;1.75;;;;;;;;5063436;28;12198;-76
2021/09/30 06:00:57;;;;;;;;;2.00;2.00;;;;;;;;5063882;28;11404;-76
2021/09/30 06:14:28;;;;;;;;;2.00;2.00;;;;;;;;5061985;28;11447;-75
2021/09/30 06:16:55;;;;;;;;;1.00;1.00;;;;;;;;5062703;28;11538;-75
2021/09/30 06:19:23;;;;;;;;;1.00;1.00;;;;;;;;5065610;28;11469;-77
2021/09/30 06:21:51;;;;;;;;;1.75;1.75;;;;;;;;5068076;28;11422;-75
2021/09/30 06:24:20;;;;;;;;;2.25;1.00;;;;;;;;5066758;28;11431;-72
2021/09/30 06:26:50;;;;;;;;;2.00;2.00;;;;;;;;5059554;28;11469;-72
2021/09/30 06:29:17;;;;;;;;;1.00;1.00;;;;;;;;5061447;28;11447;-73
2021/09/30 06:31:45;;;;;;;;;2.00;2.00;;;;;;;;5061940;28;11378;-73
2021/09/30 06:34:12;;;;;;;;;2.00;2.00;;;;;;;;5062459;28;11559;-71
2021/09/30 06:36:39;;;;;;;;;2.00;2.00;;;;;;;;5063348;28;11563;-72
2021/09/30 06:39:07;;;;;;;;;1.00;1.00;;;;;;;;5062433;28;11463;-72
2021/09/30 06:41:34;;;;;;;;;1.00;1.00;;;;;;;;5062234;28;11447;-72
2021/09/30 06:44:03;;;;;;;;;1.00;1.00;;;;;;;;5062390;28;11410;-72
2021/09/30 06:46:30;;;;;;;;;1.00;1.00;;;;;;;;5070478;28;11407;-72
2021/09/30 06:48:57;;;;;;;;;1.75;1.75;;;;;;;;5063500;28;11573;-72
2021/09/30 06:51:25;;;;;;;;;2.00;2.00;;;;;;;;5061741;28;11889;-73
2021/09/30 06:53:52;;;;;;;;;2.50;2.50;;;;;;;;5045677;28;11496;-73
2021/09/30 06:56:20;;;;;;;;;3.00;3.00;;;;;;;;5062717;28;11413;-73
2021/09/30 06:58:48;;;;;;;;;5.00;5.00;;;;;;;;5064544;28;11157;-73
2021/09/30 07:01:17;;;;;;;;;6.00;4.00;;;;;;;;5059685;28;11544;-73
2021/09/30 07:03:45;;;;;;;;;3.00;2.00;;;;;;;;5093747;28;11472;-73
2021/09/30 07:06:13;;;;;;;;;5.00;5.00;;;;;;;;5061133;28;11158;-73
2021/09/30 07:08:40;;;;;;;;;5.00;5.00;;;;;;;;5062531;28;11145;-73
2021/09/30 07:11:08;;;;;;;;;3.00;3.00;;;;;;;;5062701;28;11045;-72
2021/09/30 07:13:35;;;;;;;;;1.00;1.00;;;;;;;;5060456;28;10938;-73
2021/09/30 07:16:02;;;;;;;;;3.00;3.00;;;;;;;;5060753;28;10841;-73
2021/09/30 07:18:31;;;;;;;;;2.75;2.75;;;;;;;;5097333;28;10966;-73
2021/09/30 07:21:00;;;;;;;;;3.00;3.00;;;;;;;;5071617;28;10788;-72
2021/09/30 07:23:29;;;;;;;;;2.00;2.00;;;;;;;;5067435;28;11760;-72
2021/09/30 07:25:57;;;;;;;;;4.75;2.00;;;;;;;;5058371;28;10904;-72
2021/09/30 07:28:24;;;;;;;;;1.75;1.75;;;;;;;;5064993;28;10537;-71
2021/09/30 07:30:52;;;;;;;;;3.50;3.00;;;;;;;;5045690;28;10541;-71
2021/09/30 07:33:21;;;;;;;;;5.25;2.75;;;;;;;;5072848;28;10620;-70
2021/09/30 07:35:50;;;;;;;;;1.00;1.00;;;;;;;;5065591;28;10549;-71
2021/09/30 07:38:17;;;;;;;;;1.00;1.00;;;;;;;;5067460;28;10442;-71
2021/09/30 07:40:44;;;;;;;;;2.00;2.00;;;;;;;;5065350;28;10427;-71
2021/09/30 07:43:12;;;;;;;;;0.25;0.25;;;;;;;;5048918;28;10373;-71
2021/09/30 07:45:39;;;;;;;;;4.25;2.00;;;;;;;;5058523;28;10232;-72
2021/09/30 07:48:06;;;;;;;;;1.50;1.50;;;;;;;;5065827;28;10199;-73
2021/09/30 07:50:34;;;;;;;;;4.25;4.25;;;;;;;;5065962;28;10122;-71
2021/09/30 07:53:02;;;;;;;;;7.50;3.25;;;;;;;;5070920;28;10281;-70
2021/09/30 07:55:30;;;;;;;;;5.00;3.00;;;;;;;;5054274;28;10278;-72
2021/09/30 07:57:57;;;;;;;;;2.75;2.50;;;;;;;;5046867;28;10165;-71
2021/09/30 08:00:25;;;;;;;;;2.50;2.00;;;;;;;;5045444;28;9814;-72
2021/09/30 08:02:52;;;;;;;;;2.00;2.00;;;;;;;;5063345;28;9851;-72
2021/09/30 08:05:19;;;;;;;;;3.75;2.00;;;;;;;;5065340;28;9915;-73
2021/09/30 08:07:47;;;;;;;;;2.00;0.50;;;;;;;;5068511;28;9767;-72
2021/09/30 08:10:16;;;;;;;;;2.75;2.75;;;;;;;;5058850;28;9674;-73
2021/09/30 08:12:43;;;;;;;;;2.00;2.00;;;;;;;;5047214;28;9563;-71
2021/09/30 08:15:11;;;;;;;;;2.00;1.00;;;;;;;;5074709;28;9534;-72
2021/09/30 08:17:38;;;;;;;;;1.00;1.00;;;;;;;;5065507;28;9416;-71
2021/09/30 08:20:07;;;;;;;;;3.00;2.00;;;;;;;;5066811;28;9375;-72
2021/09/30 08:22:35;;;;;;;;;3.33;2.00;;;;;;;;5050293;28;9278;-72
2021/09/30 08:25:02;;;;;;;;;2.33;1.00;;;;;;;;5061028;28;9179;-73
2021/09/30 08:27:31;;;;;;;;;1.00;1.00;;;;;;;;5065182;28;9198;-72
2021/09/30 08:29:58;;;;;;;;;1.00;1.00;;;;;;;;5069834;28;9008;-71
2021/09/30 08:32:25;;;;;;;;;0.00;0.00;;;;;;;;5077496;27;8968;-72
2021/09/30 08:34:52;;;;;;;;;1.00;1.00;;;;;;;;5059885;28;8986;-73
2021/09/30 08:37:21;;;;;;;;;0.00;0.00;;;;;;;;5050786;28;9061;-71
2021/09/30 08:39:48;;;;;;;;;2.00;0.00;;;;;;;;5065574;28;8959;-71
2021/09/30 08:42:16;;;;;;;;;2.00;1.00;;;;;;;;5062389;28;8863;-71
2021/09/30 08:44:44;;;;;;;;;0.00;0.00;;;;;;;;5055441;28;8878;-73
2021/09/30 08:47:12;;;;;;;;;1.00;1.00;;;;;;;;5061738;28;8879;-72
2021/09/30 08:49:39;;;;;;;;;3.00;2.00;;;;;;;;5053292;28;8898;-72
2021/09/30 08:52:06;;;;;;;;;1.00;1.00;;;;;;;;5066431;28;8867;-72
2021/09/30 08:54:34;;;;;;;;;2.50;2.50;;;;;;;;5069406;28;8994;-76
2021/09/30 08:57:03;;;;;;;;;2.00;2.00;;;;;;;;5071503;28;8964;-74
2021/09/30 08:59:30;;;;;;;;;0.25;0.25;;;;;;;;5060558;28;8851;-72
2021/09/30 09:02:08;;;;;;;;;1.00;1.00;;;;;;;;5056197;28;8943;-73
2021/09/30 09:04:36;;;;;;;;;1.00;1.00;;;;;;;;5053061;28;8868;-73
2021/09/30 09:07:08;;;;;;;;;0.25;0.25;;;;;;;;5064919;28;8872;-73
2021/09/30 09:09:36;;;;;;;;;3.00;0.25;;;;;;;;5057098;28;8904;-73
2021/09/30 09:12:07;;;;;;;;;0.00;0.00;;;;;;;;5067586;28;8867;-73
2021/09/30 09:14:38;;;;;;;;;1.00;1.00;;;;;;;;5051780;28;8851;-72
2021/09/30 09:17:08;;;;;;;;;3.50;2.00;;;;;;;;5065014;28;8868;-72
2021/09/30 09:19:39;;;;;;;;;1.00;1.00;;;;;;;;5063799;28;8848;-71
2021/09/30 09:22:11;;;;;;;;;1.00;1.00;;;;;;;;5063031;28;8980;-72
2021/09/30 09:24:59;;;;;;;;;1.00;1.00;;;;;;;;5065284;28;8850;-71
2021/09/30 09:27:45;;;;;;;;;2.00;0.25;;;;;;;;5052102;28;8868;-72
2021/09/30 09:30:41;;;;;;;;;0.00;0.00;;;;;;;;5062726;28;8868;-74
2021/09/30 09:33:14;;;;;;;;;0.25;0.25;;;;;;;;5038416;28;8920;-71
2021/09/30 09:36:02;;;;;;;;;2.00;0.25;;;;;;;;5066290;28;9713;-72
2021/09/30 09:38:32;;;;;;;;;1.00;1.00;;;;;;;;5068418;28;8876;-72
2021/09/30 09:41:06;;;;;;;;;1.75;1.00;;;;;;;;5063523;28;8972;-73
2021/09/30 09:43:39;;;;;;;;;1.00;1.00;;;;;;;;5058724;28;8986;-71
2021/09/30 09:46:07;;;;;;;;;4.00;1.00;;;;;;;;5062414;28;8872;-72
2021/09/30 09:48:36;;;;;;;;;0.00;0.00;;;;;;;;5057133;28;8866;-72
2021/09/30 09:51:08;;;;;;;;;2.00;0.50;;;;;;;;5050034;28;8874;-72
2021/09/30 09:53:36;;;;;;;;;0.00;0.00;;;;;;;;5064069;28;8886;-72
2021/09/30 09:56:15;;;;;;;;;2.50;0.00;;;;;;;;5074699;28;8990;-72
2021/09/30 09:58:47;;;;;;;;;1.25;0.75;;;;;;;;5063604;28;8868;-76
2021/09/30 10:01:31;;;;;;;;;0.25;0.25;;;;;;;;5064739;28;8809;-73
2021/09/30 10:04:01;;;;;;;;;0.00;0.00;;;;;;;;5077704;28;8846;-73
2021/09/30 10:06:31;;;;;;;;;2.00;0.00;;;;;;;;5063574;28;8865;-74
2021/09/30 10:08:59;;;;;;;;;0.00;0.00;;;;;;;;5065855;28;10048;-73
2021/09/30 10:11:27;;;;;;;;;0.00;0.00;;;;;;;;5062391;28;8882;-75
2021/09/30 10:13:58;;;;;;;;;0.00;0.00;;;;;;;;5058565;28;8926;-73
2021/09/30 10:16:26;;;;;;;;;2.25;0.00;;;;;;;;5062995;28;8983;-74
2021/09/30 10:18:55;;;;;;;;;0.00;0.00;;;;;;;;5062781;28;8884;-74
2021/09/30 10:21:24;;;;;;;;;0.00;0.00;;;;;;;;5063190;28;8995;-71
2021/09/30 10:23:54;;;;;;;;;1.50;0.00;;;;;;;;5063329;28;8856;-71
2021/09/30 10:26:25;;;;;;;;;0.00;0.00;;;;;;;;5063019;28;8852;-72
2021/09/30 10:28:53;;;;;;;;;0.00;0.00;;;;;;;;5071721;28;8876;-73
2021/09/30 10:31:23;;;;;;;;;0.50;0.00;;;;;;;;5062093;28;8810;-73
2021/09/30 10:33:52;;;;;;;;;1.25;0.00;;;;;;;;5062654;28;8867;-72
2021/09/30 10:36:36;;;;;;;;;2.00;0.00;;;;;;;;5063330;28;8844;-71
2021/09/30 10:39:30;;;;;;;;;0.00;0.00;;;;;;;;5065443;28;8875;-73
2021/09/30 10:42:00;;;;;;;;;0.00;0.00;;;;;;;;5056977;28;8946;-74
2021/09/30 10:44:34;;;;;;;;;1.00;0.00;;;;;;;;5067449;28;9019;-73
2021/09/30 10:47:02;;;;;;;;;1.00;0.00;;;;;;;;5060140;28;8879;-74
2021/09/30 10:49:42;;;;;;;;;2.00;0.00;;;;;;;;5062646;28;9637;-71
2021/09/30 10:52:32;;;;;;;;;0.00;0.00;;;;;;;;5063701;28;8828;-70
2021/09/30 10:55:27;;;;;;;;;0.00;0.00;;;;;;;;5059251;28;8895;-70
2021/09/30 10:57:57;;;;;;;;;0.00;0.00;;;;;;;;5062796;28;8852;-70
2021/09/30 11:00:57;;;;;;;;;0.00;0.00;;;;;;;;5075023;28;8809;-71
2021/09/30 11:03:26;;;;;;;;;1.00;0.00;;;;;;;;5021541;28;8979;-71
2021/09/30 11:06:25;;;;;;;;;0.00;0.00;;;;;;;;5060031;28;8970;-71
2021/09/30 11:09:21;;;;;;;;;0.00;0.00;;;;;;;;5000082;28;8864;-72
2021/09/30 11:11:51;;;;;;;;;0.00;0.00;;;;;;;;5066088;28;8885;-72
2021/09/30 11:14:25;;;;;;;;;0.00;0.00;;;;;;;;5060600;28;8852;-73
2021/09/30 11:16:56;;;;;;;;;0.00;0.00;;;;;;;;5060228;28;8902;-72
2021/09/30 11:19:30;;;;;;;;;0.00;0.00;;;;;;;;5062518;28;8882;-70
2021/09/30 11:22:00;;;;;;;;;0.00;0.00;;;;;;;;5059402;28;8985;-71
2021/09/30 11:24:51;;;;;;;;;0.00;0.00;;;;;;;;5063100;28;8856;-70
2021/09/30 11:27:21;;;;;;;;;0.00;0.00;;;;;;;;5046431;28;8931;-71
2021/09/30 11:29:49;;;;;;;;;0.00;0.00;;;;;;;;5061742;28;9591;-71
2021/09/30 11:32:27;;;;;;;;;0.00;0.00;;;;;;;;5062994;28;8854;-72
2021/09/30 11:35:00;;;;;;;;;0.00;0.00;;;;;;;;5066606;28;9435;-73
2021/09/30 11:37:44;;;;;;;;;0.00;0.00;;;;;;;;5063026;28;8890;-72
2021/09/30 11:40:15;;;;;;;;;0.00;0.00;;;;;;;;5055751;28;8852;-74
2021/09/30 11:42:46;;;;;;;;;2.60;0.00;;;;;;;;5062108;28;8879;-73
2021/09/30 11:45:16;;;;;;;;;1.80;0.20;;;;;;;;5064735;28;8896;-73
2021/09/30 11:47:45;;;;;;;;;3.00;0.00;;;;;;;;5060698;28;8852;-74
2021/09/30 11:50:22;;;;;;;;;0.60;0.60;;;;;;;;5062765;28;8865;-74
2021/09/30 11:52:57;;;;;;;;;0.00;0.00;;;;;;;;5061981;28;8905;-73
2021/09/30 11:55:27;;;;;;;;;0.00;0.00;;;;;;;;5067125;28;8883;-73
2021/09/30 11:57:59;;;;;;;;;0.00;0.00;;;;;;;;5062868;28;8887;-73
2021/09/30 12:00:27;;;;;;;;;0.00;0.00;;;;;;;;5056911;28;8795;-74
2021/09/30 12:03:00;;;;;;;;;0.00;0.00;;;;;;;;5041229;28;8889;-74
2021/09/30 12:05:30;;;;;;;;;0.00;0.00;;;;;;;;5032514;28;8869;-74
2021/09/30 12:07:59;;;;;;;;;0.00;0.00;;;;;;;;5042974;28;8890;-74
2021/09/30 12:10:29;;;;;;;;;0.00;0.00;;;;;;;;5041967;28;8871;-74
2021/09/30 12:12:58;;;;;;;;;1.80;1.80;;;;;;;;5040584;28;8858;-74
2021/09/30 12:15:25;;;;;;;;;1.00;1.00;;;;;;;;5043174;28;8867;-74
2021/09/30 12:17:53;;;;;;;;;0.00;0.00;;;;;;;;5043407;28;8891;-74
2021/09/30 12:20:21;;;;;;;;;0.00;0.00;;;;;;;;5044626;28;8911;-74
2021/09/30 12:22:53;;;;;;;;;0.00;0.00;;;;;;;;5041518;28;8981;-74
2021/09/30 12:25:24;;;;;;;;;0.00;0.00;;;;;;;;5041481;28;8992;-74
2021/09/30 12:27:54;;;;;;;;;0.00;0.00;;;;;;;;5040938;28;8843;-74
2021/09/30 12:30:25;;;;;;;;;0.00;0.00;;;;;;;;5039514;28;8957;-74
2021/09/30 12:32:53;;;;;;;;;0.00;0.00;;;;;;;;5044441;28;8862;-74
2021/09/30 12:35:24;;;;;;;;;0.00;0.00;;;;;;;;5045068;28;8887;-74
2021/09/30 12:37:53;;;;;;;;;0.00;0.00;;;;;;;;5046402;28;10371;-74
2021/09/30 12:40:26;;;;;;;;;0.00;0.00;;;;;;;;5046110;28;8874;-74
2021/09/30 12:42:59;;;;;;;;;0.00;0.00;;;;;;;;5045570;28;9022;-74
2021/09/30 12:45:28;;;;;;;;;0.00;0.00;;;;;;;;5046753;28;8863;-74
2021/09/30 12:48:03;;;;;;;;;0.00;0.00;;;;;;;;5044735;28;8890;-75
2021/09/30 12:50:37;;;;;;;;;0.00;0.00;;;;;;;;5032623;28;8994;-75
2021/09/30 12:53:04;;;;;;;;;0.00;0.00;;;;;;;;5025950;28;8861;-74
2021/09/30 12:55:33;;;;;;;;;0.00;0.00;;;;;;;;5025992;28;8870;-75
2021/09/30 12:58:00;;;;;;;;;0.00;0.00;;;;;;;;5045923;28;9330;-74
2021/09/30 13:00:34;;;;;;;;;0.40;0.40;;;;;;;;5043374;28;8786;-75
2021/09/30 13:03:14;;;;;;;;;0.60;0.00;;;;;;;;5046032;28;8871;-73
2021/09/30 13:05:48;;;;;;;;;0.00;0.00;;;;;;;;5045175;28;8867;-74
2021/09/30 13:08:36;;;;;;;;;0.00;0.00;;;;;;;;5045694;28;8944;-73
2021/09/30 13:11:24;;;;;;;;;0.00;0.00;;;;;;;;5045116;28;8847;-73
2021/09/30 13:14:22;;;;;;;;;0.60;0.00;;;;;;;;5043382;28;9680;-73
2021/09/30 13:16:53;;;;;;;;;0.00;0.00;;;;;;;;5038672;28;8874;-73
2021/09/30 13:19:22;;;;;;;;;3.00;0.00;;;;;;;;5044312;28;8879;-73
2021/09/30 13:21:59;;;;;;;;;0.00;0.00;;;;;;;;5044233;28;8901;-73
2021/09/30 13:24:26;;;;;;;;;0.00;0.00;;;;;;;;5043012;28;8867;-73
2021/09/30 13:26:54;;;;;;;;;1.00;0.00;;;;;;;;5045182;28;8866;-74
2021/09/30 13:29:21;;;;;;;;;0.00;0.00;;;;;;;;5045629;28;8867;-74
2021/09/30 13:31:49;;;;;;;;;0.00;0.00;;;;;;;;5043819;28;8850;-74
2021/09/30 13:34:17;;;;;;;;;0.00;0.00;;;;;;;;5045064;28;8897;-74
2021/09/30 13:36:45;;;;;;;;;0.00;0.00;;;;;;;;5045444;28;8874;-74
2021/09/30 13:39:12;;;;;;;;;0.60;0.00;;;;;;;;5040382;28;8889;-74
2021/09/30 13:41:40;;;;;;;;;1.00;0.00;;;;;;;;5042140;28;8880;-75
2021/09/30 13:44:07;;;;;;;;;0.00;0.00;;;;;;;;5043267;28;8851;-75
2021/09/30 13:46:34;;;;;;;;;0.00;0.00;;;;;;;;5044420;28;8858;-75
2021/09/30 13:49:02;;;;;;;;;0.00;0.00;;;;;;;;5043224;28;8867;-74
2021/09/30 13:51:32;;;;;;;;;0.00;0.00;;;;;;;;5045133;28;8871;-74
2021/09/30 13:54:00;;;;;;;;;0.00;0.00;;;;;;;;5044274;28;8873;-74
2021/09/30 13:56:28;;;;;;;;;0.00;0.00;;;;;;;;5042264;28;8878;-74
2021/09/30 13:58:56;;;;;;;;;1.80;0.00;;;;;;;;5043652;28;8851;-74
2021/09/30 14:01:24;;;;;;;;;0.00;0.00;;;;;;;;5042426;28;8783;-75
2021/09/30 14:03:51;;;;;;;;;1.00;0.00;;;;;;;;5043324;28;8878;-75
2021/09/30 14:06:19;;;;;;;;;0.00;0.00;;;;;;;;5043745;28;8887;-75
2021/09/30 14:08:49;;;;;;;;;0.00;0.00;;;;;;;;5044392;28;9013;-76
2021/09/30 14:11:17;;;;;;;;;1.00;0.00;;;;;;;;5044355;28;8897;-74
2021/09/30 14:13:45;;;;;;;;;1.00;0.00;;;;;;;;5044440;28;8943;-74
2021/09/30 14:16:13;;;;;;;;;1.20;0.00;;;;;;;;5041847;28;8859;-73
2021/09/30 14:18:40;;;;;;;;;2.20;0.00;;;;;;;;5024352;28;8873;-76
2021/09/30 14:21:09;;;;;;;;;0.00;0.00;;;;;;;;5044427;28;8902;-75
2021/09/30 14:23:38;;;;;;;;;0.00;0.00;;;;;;;;5043603;28;8879;-75
2021/09/30 14:26:07;;;;;;;;;1.00;0.00;;;;;;;;5044034;28;8917;-75
2021/09/30 14:28:34;;;;;;;;;0.00;0.00;;;;;;;;5044386;28;8934;-75
2021/09/30 14:31:02;;;;;;;;;0.00;0.00;;;;;;;;5042726;28;8819;-75
2021/09/30 14:33:32;;;;;;;;;0.00;0.00;;;;;;;;5043255;28;8898;-75
2021/09/30 14:36:00;;;;;;;;;0.00;0.00;;;;;;;;5043344;28;8886;-74
2021/09/30 14:38:27;;;;;;;;;0.60;0.00;;;;;;;;5044415;28;8867;-74
2021/09/30 14:40:55;;;;;;;;;1.00;0.00;;;;;;;;5043082;28;9613;-75
2021/09/30 14:43:26;;;;;;;;;0.00;0.00;;;;;;;;5044830;28;8867;-74
2021/09/30 14:45:53;;;;;;;;;0.00;0.00;;;;;;;;5043796;28;8867;-74
2021/09/30 14:48:21;;;;;;;;;0.00;0.00;;;;;;;;5043663;28;9021;-74
2021/09/30 14:50:48;;;;;;;;;0.00;0.00;;;;;;;;5043133;28;8866;-74
2021/09/30 14:53:16;;;;;;;;;0.00;0.00;;;;;;;;5028062;28;8904;-74
2021/09/30 14:55:44;;;;;;;;;0.00;0.00;;;;;;;;5043302;28;9499;-74
2021/09/30 14:58:11;;;;;;;;;0.00;0.00;;;;;;;;5041961;28;8991;-73
2021/09/30 15:00:42;;;;;;;;;0.00;0.00;;;;;;;;5047843;28;8820;-75
2021/09/30 15:03:09;;;;;;;;;0.00;0.00;;;;;;;;5063121;28;9654;-74
2021/09/30 15:05:37;;;;;;;;;0.00;0.00;;;;;;;;5062247;28;8876;-75
2021/09/30 15:08:05;;;;;;;;;0.00;0.00;;;;;;;;5059519;28;8856;-76
2021/09/30 15:10:32;;;;;;;;;0.60;0.00;;;;;;;;5061866;28;8878;-74
2021/09/30 15:12:59;;;;;;;;;0.00;0.00;;;;;;;;5062833;28;8900;-73
2021/09/30 15:15:29;;;;;;;;;1.00;0.00;;;;;;;;5062217;28;8860;-74
2021/09/30 15:18:00;;;;;;;;;0.00;0.00;;;;;;;;5060447;28;9672;-74
2021/09/30 15:23:16;;;;;;;;;0.00;0.00;;;;;;;;5062635;28;8833;-74
2021/09/30 15:25:45;;;;;;;;;0.00;0.00;;;;;;;;5063070;28;8890;-74
2021/09/30 15:28:15;;;;;;;;;1.00;0.00;;;;;;;;5061552;28;8844;-74
2021/09/30 15:30:43;;;;;;;;;0.00;0.00;;;;;;;;5062965;28;8801;-73
2021/09/30 15:33:13;;;;;;;;;0.60;0.00;;;;;;;;5062292;28;8977;-74
2021/09/30 15:35:42;;;;;;;;;0.00;0.00;;;;;;;;5064093;28;9572;-74
2021/09/30 15:38:10;;;;;;;;;0.00;0.00;;;;;;;;5062871;28;8825;-74
2021/09/30 15:40:38;;;;;;;;;0.00;0.00;;;;;;;;5062288;28;8860;-73
2021/09/30 15:43:05;;;;;;;;;0.00;0.00;;;;;;;;5066158;28;8852;-73
2021/09/30 15:45:34;;;;;;;;;0.60;0.00;;;;;;;;5064227;28;8888;-74
2021/09/30 15:48:01;;;;;;;;;1.00;0.00;;;;;;;;5065587;28;8857;-72
2021/09/30 15:50:31;;;;;;;;;0.00;0.00;;;;;;;;5065317;28;8892;-73
2021/09/30 15:52:58;;;;;;;;;1.00;0.00;;;;;;;;5065217;28;8860;-73
2021/09/30 15:55:25;;;;;;;;;0.40;0.00;;;;;;;;5062865;28;9670;-72
2021/09/30 15:57:53;;;;;;;;;0.00;0.00;;;;;;;;5063212;28;8840;-74
2021/09/30 16:00:21;;;;;;;;;0.00;0.00;;;;;;;;5059379;28;8860;-71
2021/09/30 16:02:48;;;;;;;;;0.80;0.00;;;;;;;;5057842;28;8860;-72
2021/09/30 16:05:16;;;;;;;;;0.00;0.00;;;;;;;;5062685;28;8876;-72
2021/09/30 16:07:45;;;;;;;;;0.00;0.00;;;;;;;;5056718;28;9480;-73
2021/09/30 16:10:13;;;;;;;;;0.00;0.00;;;;;;;;5061893;28;8861;-74
2021/09/30 16:12:40;;;;;;;;;0.00;0.00;;;;;;;;5057983;28;8880;-70
2021/09/30 16:15:09;;;;;;;;;0.00;0.00;;;;;;;;5056281;28;8930;-72
2021/09/30 16:17:37;;;;;;;;;0.00;0.00;;;;;;;;5060614;28;8872;-75
2021/09/30 16:20:06;;;;;;;;;0.00;0.00;;;;;;;;5060991;28;8860;-72
2021/09/30 16:22:34;;;;;;;;;0.60;0.00;;;;;;;;5066109;28;8918;-72
2021/09/30 16:25:03;;;;;;;;;0.00;0.00;;;;;;;;5066334;28;9495;-73
2021/09/30 16:27:32;;;;;;;;;1.00;1.00;;;;;;;;5070305;28;8957;-77
2021/09/30 16:29:59;;;;;;;;;1.00;0.00;;;;;;;;5065143;28;8959;-73
2021/09/30 16:32:27;;;;;;;;;0.00;0.00;;;;;;;;5060768;28;8809;-73
2021/09/30 16:34:54;;;;;;;;;0.00;0.00;;;;;;;;5065185;28;8895;-73
2021/09/30 16:37:22;;;;;;;;;0.00;0.00;;;;;;;;5056873;28;8971;-73
2021/09/30 16:39:49;;;;;;;;;0.00;0.00;;;;;;;;5066282;28;9634;-74
2021/09/30 16:42:18;;;;;;;;;0.00;0.00;;;;;;;;5062296;28;8860;-72
2021/09/30 16:44:46;;;;;;;;;0.80;0.80;;;;;;;;5060699;28;8883;-72
2021/09/30 16:47:15;;;;;;;;;0.00;0.00;;;;;;;;5055281;28;8875;-73
2021/09/30 16:49:42;;;;;;;;;1.00;1.00;;;;;;;;5045555;28;8882;-72
2021/09/30 16:52:09;;;;;;;;;1.00;1.00;;;;;;;;5045200;28;8912;-72
2021/09/30 16:54:37;;;;;;;;;3.20;3.20;;;;;;;;5059572;28;9001;-73
2021/09/30 16:57:04;;;;;;;;;4.80;3.80;;;;;;;;5061307;28;8848;-74
2021/09/30 16:59:33;;;;;;;;;1.00;1.00;;;;;;;;5060873;28;8898;-72
2021/09/30 17:02:00;;;;;;;;;1.00;1.00;;;;;;;;5061460;28;8815;-73
2021/09/30 17:04:28;;;;;;;;;1.00;1.00;;;;;;;;5060089;28;8891;-73
2021/09/30 17:06:56;;;;;;;;;4.00;2.00;;;;;;;;5063472;28;8886;-74
2021/09/30 17:09:23;;;;;;;;;3.00;3.00;;;;;;;;5046941;28;8898;-74
2021/09/30 17:11:50;;;;;;;;;4.75;4.00;;;;;;;;5064821;28;8910;-74
2021/09/30 17:14:18;;;;;;;;;4.00;4.00;;;;;;;;5057686;28;8886;-73
2021/09/30 17:16:47;;;;;;;;;7.00;4.25;;;;;;;;5054127;28;9474;-74
2021/09/30 17:19:14;;;;;;;;;6.00;4.00;;;;;;;;5049303;28;8909;-74
2021/09/30 17:21:41;;;;;;;;;2.00;2.00;;;;;;;;5050612;28;9672;-74
2021/09/30 17:24:09;;;;;;;;;0.50;0.50;;;;;;;;5054659;28;8863;-74
2021/09/30 17:26:36;;;;;;;;;1.25;1.25;;;;;;;;5059871;28;8860;-74
2021/09/30 17:29:03;;;;;;;;;2.50;1.25;;;;;;;;5063477;28;8872;-74
2021/09/30 17:31:31;;;;;;;;;1.00;1.00;;;;;;;;5059848;28;8927;-74
2021/09/30 17:34:00;;;;;;;;;0.75;0.75;;;;;;;;5069719;28;9983;-72
2021/09/30 17:36:27;;;;;;;;;3.00;2.00;;;;;;;;5052155;28;9264;-75